createdAt,value
2019-01-31T00:00:11.632Z,72.70
2019-01-31T00:02:59.917Z,72.70
2019-01-31T00:05:37.593Z,72.60
2019-01-31T00:08:45.979Z,72.30
2019-01-31T00:11:32.183Z,72.40
2019-01-31T00:14:06.998Z,73.40
2019-01-31T00:16:57.703Z,73.60
2019-01-31T00:19:53.574Z,73.10
2019-01-31T00:22:45.264Z,73.20
2019-01-31T00:25:48.739Z,73.50
2019-01-31T00:28:29.021Z,73.20
2019-01-31T00:31:03.622Z,72.90
2019-01-31T00:34:03.867Z,72.90
2019-01-31T00:36:44.121Z,73.40
2019-01-31T00:39:19.740Z,73.60
2019-01-31T00:41:57.567Z,73.30
2019-01-31T00:44:35.022Z,73.10
2019-01-31T00:47:19.706Z,73.40
2019-01-31T00:50:00.409Z,73.40
2019-01-31T00:52:42.145Z,73.10
2019-01-31T00:55:28.667Z,72.90
2019-01-31T00:58:12.709Z,73.10
2019-01-31T01:00:53.620Z,72.50
2019-01-31T01:03:28.210Z,72.80
2019-01-31T01:06:09.342Z,72.80
2019-01-31T01:09:07.818Z,72.50
2019-01-31T01:11:47.915Z,72.60
2019-01-31T01:14:22.382Z,73.40
2019-01-31T01:17:03.036Z,73.20
2019-01-31T01:19:54.088Z,72.60
2019-01-31T01:22:29.212Z,72.40
2019-01-31T01:25:06.637Z,72.30
2019-01-31T01:27:44.349Z,72.30
2019-01-31T01:30:28.135Z,72.70
2019-01-31T01:32:59.859Z,73.20
2019-01-31T01:35:34.493Z,73.40
2019-01-31T01:38:06.340Z,73.60
2019-01-31T01:41:05.326Z,73.70
2019-01-31T01:43:45.792Z,73.40
2019-01-31T01:46:26.620Z,73.60
2019-01-31T01:49:23.829Z,73.20
2019-01-31T01:52:10.891Z,72.30
2019-01-31T01:55:14.273Z,72.90
2019-01-31T01:57:57.810Z,72.80
2019-01-31T02:00:38.640Z,73.10
2019-01-31T02:03:16.052Z,73.30
2019-01-31T02:05:59.952Z,73.40
2019-01-31T02:08:54.059Z,73.00
2019-01-31T02:11:40.667Z,72.70
2019-01-31T02:14:45.941Z,72.90
2019-01-31T02:17:20.544Z,73.60
2019-01-31T02:20:18.006Z,73.20
2019-01-31T02:23:07.450Z,73.00
2019-01-31T02:28:55.726Z,72.80
2019-01-31T02:31:36.244Z,72.80
2019-01-31T02:34:14.032Z,72.60
2019-01-31T02:36:45.894Z,72.50
2019-01-31T02:39:42.313Z,72.70
2019-01-31T02:42:31.268Z,72.50
2019-01-31T02:45:21.001Z,72.30
2019-01-31T02:48:15.148Z,72.20
2019-01-31T02:51:19.919Z,72.60
2019-01-31T02:54:15.594Z,72.50
2019-01-31T02:56:50.785Z,72.20
2019-01-31T02:59:28.615Z,72.60
2019-01-31T03:05:25.854Z,72.30
2019-01-31T03:08:10.589Z,72.70
2019-01-31T03:11:01.039Z,73.30
2019-01-31T03:13:32.831Z,73.00
2019-01-31T03:16:30.514Z,72.90
2019-01-31T03:19:10.914Z,73.60
2019-01-31T03:22:17.192Z,73.60
2019-01-31T03:25:01.175Z,73.50
2019-01-31T03:27:38.769Z,73.60
2019-01-31T03:33:48.560Z,73.60
2019-01-31T03:36:52.045Z,73.40
2019-01-31T03:39:35.651Z,73.40
2019-01-31T03:42:13.348Z,73.70
2019-01-31T03:44:45.106Z,73.30
2019-01-31T03:47:28.666Z,73.50
2019-01-31T03:50:17.060Z,73.40
2019-01-31T03:52:57.935Z,73.50
2019-01-31T03:55:44.816Z,73.50
2019-01-31T03:58:26.336Z,73.30
2019-01-31T04:04:14.767Z,73.90
2019-01-31T04:06:44.936Z,74.20
2019-01-31T04:09:14.102Z,74.00
2019-01-31T04:11:43.145Z,72.80
2019-01-31T04:14:12.190Z,73.00
2019-01-31T04:16:40.950Z,73.40
2019-01-31T04:19:10.906Z,73.50
2019-01-31T04:21:42.679Z,73.30
2019-01-31T04:24:11.635Z,73.30
2019-01-31T04:26:40.620Z,73.60
2019-01-31T04:29:09.445Z,73.60
2019-01-31T04:31:38.366Z,73.70
2019-01-31T04:34:07.343Z,73.60
2019-01-31T04:36:36.322Z,73.50
2019-01-31T04:39:08.079Z,73.70
2019-01-31T04:41:37.122Z,73.60
2019-01-31T04:44:06.010Z,73.60
2019-01-31T04:46:34.879Z,73.70
2019-01-31T04:49:03.797Z,73.60
2019-01-31T04:51:32.806Z,73.80
2019-01-31T04:54:01.753Z,73.90
2019-01-31T04:56:30.794Z,74.10
2019-01-31T04:58:59.917Z,74.20
2019-01-31T05:01:28.918Z,74.70
2019-01-31T05:03:57.826Z,74.60
2019-01-31T05:06:27.040Z,74.60
2019-01-31T05:08:56.103Z,74.60
2019-01-31T05:11:25.139Z,74.30
2019-01-31T05:13:54.416Z,74.40
2019-01-31T05:16:23.249Z,74.40
2019-01-31T05:18:52.017Z,74.40
2019-01-31T05:21:21.455Z,74.50
2019-01-31T05:23:50.354Z,74.40
2019-01-31T05:26:19.586Z,74.60
2019-01-31T05:28:49.647Z,74.60
2019-01-31T05:31:18.631Z,74.60
2019-01-31T05:33:47.636Z,74.70
2019-01-31T05:36:16.684Z,74.70
2019-01-31T05:38:45.928Z,74.50
2019-01-31T05:41:14.848Z,74.40
2019-01-31T05:43:44.039Z,74.60
2019-01-31T05:46:13.436Z,74.70
2019-01-31T05:48:42.483Z,74.60
2019-01-31T05:51:11.436Z,74.20
2019-01-31T05:53:40.201Z,74.60
2019-01-31T05:56:09.434Z,75.70
2019-01-31T05:58:38.387Z,75.10
2019-01-31T06:01:07.178Z,75.20
2019-01-31T06:03:35.931Z,75.30
2019-01-31T06:06:05.192Z,75.50
2019-01-31T06:08:37.295Z,75.10
2019-01-31T06:11:25.719Z,74.40
2019-01-31T06:13:54.831Z,74.10
2019-01-31T06:16:23.901Z,74.20
2019-01-31T06:18:52.926Z,73.80
2019-01-31T06:21:24.806Z,73.90
2019-01-31T06:23:54.196Z,74.30
2019-01-31T06:26:23.658Z,74.70
2019-01-31T06:28:52.522Z,74.90
2019-01-31T06:31:21.539Z,74.70
2019-01-31T06:33:50.649Z,74.60
2019-01-31T06:36:20.014Z,74.90
2019-01-31T06:38:49.520Z,74.70
2019-01-31T06:41:32.981Z,74.50
2019-01-31T06:44:01.773Z,74.80
2019-01-31T06:46:32.019Z,75.10
2019-01-31T06:49:01.017Z,75.20
2019-01-31T06:51:29.691Z,74.60
2019-01-31T06:53:59.143Z,75.10
2019-01-31T06:56:28.451Z,75.20
2019-01-31T06:58:57.568Z,75.30
2019-01-31T07:01:26.397Z,75.20
2019-01-31T07:03:55.266Z,75.50
2019-01-31T07:06:24.208Z,75.30
2019-01-31T07:08:53.022Z,75.20
2019-01-31T07:11:29.603Z,74.90
2019-01-31T07:13:53.885Z,74.80
2019-01-31T07:16:22.769Z,74.60
2019-01-31T07:18:54.866Z,74.80
2019-01-31T07:21:23.906Z,74.70
2019-01-31T07:23:52.986Z,75.00
2019-01-31T07:26:21.866Z,75.00
2019-01-31T07:28:51.200Z,75.20
2019-01-31T07:31:20.354Z,75.20
2019-01-31T07:33:49.563Z,75.40
2019-01-31T07:36:18.623Z,75.30
2019-01-31T07:38:47.884Z,75.40
2019-01-31T07:41:41.579Z,75.50
2019-01-31T07:44:06.256Z,75.30
2019-01-31T07:46:35.507Z,75.60
2019-01-31T07:49:04.884Z,75.40
2019-01-31T07:51:33.834Z,75.20
2019-01-31T07:54:03.000Z,75.30
2019-01-31T07:56:31.716Z,75.30
2019-01-31T07:59:01.139Z,75.40
2019-01-31T08:01:30.182Z,75.30
2019-01-31T08:04:02.659Z,75.50
2019-01-31T08:06:30.286Z,75.70
2019-01-31T08:09:16.583Z,76.10
2019-01-31T08:11:52.348Z,76.30
2019-01-31T08:14:16.160Z,76.10
2019-01-31T08:16:45.679Z,76.50
2019-01-31T08:19:14.508Z,76.40
2019-01-31T08:21:43.489Z,76.50
2019-01-31T08:24:12.462Z,76.50
2019-01-31T08:26:41.437Z,76.90
2019-01-31T08:29:11.839Z,77.20
2019-01-31T08:31:40.792Z,77.30
2019-01-31T08:34:09.638Z,77.10
2019-01-31T08:36:38.664Z,76.90
2019-01-31T08:39:08.545Z,77.00
2019-01-31T08:41:37.450Z,77.00
2019-01-31T08:44:06.251Z,77.00
2019-01-31T08:46:35.179Z,77.00
2019-01-31T08:49:04.751Z,76.90
2019-01-31T08:51:33.560Z,77.20
2019-01-31T08:54:02.463Z,77.10
2019-01-31T08:56:31.323Z,77.00
2019-01-31T08:59:00.316Z,77.10
2019-01-31T09:01:29.121Z,76.90
2019-01-31T09:03:57.923Z,76.80
2019-01-31T09:06:28.264Z,76.90
2019-01-31T09:08:57.272Z,77.20
2019-01-31T09:11:43.502Z,77.30
2019-01-31T09:14:12.367Z,77.30
2019-01-31T09:16:41.428Z,77.40
2019-01-31T09:19:10.315Z,77.60
2019-01-31T09:21:39.984Z,78.50
2019-01-31T09:27:41.203Z,78.10
2019-01-31T09:33:29.985Z,78.00
2019-01-31T09:36:08.001Z,77.80
2019-01-31T09:39:10.137Z,77.80
2019-01-31T09:41:55.396Z,77.90
2019-01-31T09:45:05.041Z,78.20
2019-01-31T09:48:05.804Z,78.20
2019-01-31T09:51:17.934Z,78.30
2019-01-31T09:57:44.382Z,78.80
2019-01-31T10:00:27.888Z,78.70
2019-01-31T10:03:02.978Z,78.80
2019-01-31T10:06:10.614Z,79.00
2019-01-31T10:08:51.299Z,79.00
2019-01-31T10:11:43.827Z,79.00
2019-01-31T10:14:34.247Z,79.00
2019-01-31T10:24:03.478Z,79.20
2019-01-31T10:26:53.028Z,79.20
2019-01-31T10:29:39.943Z,79.30
2019-01-31T10:32:36.945Z,79.50
2019-01-31T10:35:19.003Z,79.60
2019-01-31T10:41:36.362Z,80.00
2019-01-31T10:44:28.502Z,80.20
2019-01-31T10:53:33.404Z,79.90
2019-01-31T10:56:19.487Z,79.90
2019-01-31T11:02:39.021Z,80.00
2019-01-31T11:05:19.773Z,80.00
2019-01-31T11:08:06.802Z,80.00
2019-01-31T11:11:13.712Z,79.90
2019-01-31T11:14:11.090Z,79.70
2019-01-31T11:16:47.602Z,79.60
2019-01-31T11:19:34.348Z,79.40
2019-01-31T11:22:30.696Z,79.40
2019-01-31T11:25:14.892Z,79.20
2019-01-31T11:28:42.549Z,79.20
2019-01-31T11:31:42.299Z,79.40
2019-01-31T11:34:35.166Z,79.50
2019-01-31T11:37:33.535Z,79.80
2019-01-31T11:40:27.823Z,79.80
2019-01-31T11:43:21.372Z,79.90
2019-01-31T11:52:48.876Z,79.70
2019-01-31T11:55:28.803Z,79.80
2019-01-31T11:58:25.010Z,80.00
2019-01-31T12:01:05.344Z,80.00
2019-01-31T12:03:41.884Z,79.90
2019-01-31T12:06:20.276Z,80.00
2019-01-31T12:08:54.310Z,80.10
2019-01-31T12:11:36.096Z,80.20
2019-01-31T12:14:12.734Z,80.30
2019-01-31T12:16:48.080Z,80.30
2019-01-31T12:19:22.679Z,80.30
2019-01-31T12:22:12.514Z,80.30
2019-01-31T12:25:00.566Z,80.10
2019-01-31T12:33:23.874Z,80.10
2019-01-31T12:35:55.715Z,80.10
2019-01-31T12:38:36.914Z,80.20
2019-01-31T12:41:17.031Z,80.30
2019-01-31T12:44:00.054Z,80.60
2019-01-31T12:46:39.397Z,80.50
2019-01-31T12:49:19.634Z,80.40
2019-01-31T12:54:49.472Z,80.20
2019-01-31T12:57:23.504Z,80.30
2019-01-31T12:59:53.756Z,81.20
2019-01-31T13:02:27.798Z,80.10
2019-01-31T13:05:01.894Z,80.10
2019-01-31T13:07:40.496Z,80.00
2019-01-31T13:10:33.359Z,80.20
2019-01-31T13:13:10.188Z,80.50
2019-01-31T13:15:46.821Z,80.60
2019-01-31T13:18:25.994Z,80.60
2019-01-31T13:20:58.312Z,80.60
2019-01-31T13:23:36.874Z,80.60
2019-01-31T13:26:12.638Z,80.70
2019-01-31T13:31:45.746Z,80.80
2019-01-31T13:34:25.500Z,80.60
2019-01-31T13:37:00.395Z,80.70
2019-01-31T13:39:33.818Z,80.70
2019-01-31T13:42:06.133Z,80.60
2019-01-31T13:44:38.503Z,80.60
2019-01-31T13:47:14.274Z,80.70
2019-01-31T13:49:49.193Z,80.90
2019-01-31T13:52:22.308Z,81.20
2019-01-31T13:54:55.406Z,81.30
2019-01-31T13:57:28.474Z,81.20
2019-01-31T14:00:04.767Z,81.20
2019-01-31T14:02:37.869Z,81.30
2019-01-31T14:05:10.338Z,81.30
2019-01-31T14:07:44.239Z,81.60
2019-01-31T14:10:25.340Z,81.70
2019-01-31T14:12:59.243Z,81.60
2019-01-31T14:15:34.559Z,81.50
2019-01-31T14:18:10.757Z,81.40
2019-01-31T14:20:42.555Z,81.30
2019-01-31T14:23:30.551Z,81.30
2019-01-31T14:26:03.055Z,81.40
2019-01-31T14:28:37.115Z,81.60
2019-01-31T14:31:11.300Z,81.80
2019-01-31T14:33:45.583Z,82.00
2019-01-31T14:36:21.597Z,82.10
2019-01-31T14:38:54.489Z,82.30
2019-01-31T14:41:27.382Z,82.30
2019-01-31T14:43:59.552Z,82.10
2019-01-31T14:46:31.061Z,81.90
2019-01-31T14:49:02.303Z,81.80
2019-01-31T14:51:30.738Z,81.70
2019-01-31T14:53:59.734Z,81.70
2019-01-31T14:56:28.726Z,81.60
2019-01-31T14:58:57.755Z,81.60
2019-01-31T15:01:33.093Z,81.50
2019-01-31T15:04:05.436Z,81.50
2019-01-31T15:06:37.329Z,81.60
2019-01-31T15:09:09.639Z,81.50
2019-01-31T15:11:38.435Z,81.30
2019-01-31T15:14:07.826Z,81.10
2019-01-31T15:16:36.733Z,81.10
2019-01-31T15:19:05.650Z,81.30
2019-01-31T15:21:34.442Z,81.10
2019-01-31T15:24:03.331Z,81.10
2019-01-31T15:26:32.360Z,81.90
2019-01-31T15:29:03.819Z,81.20
2019-01-31T15:31:33.553Z,81.10
2019-01-31T15:34:02.457Z,80.70
2019-01-31T15:36:31.813Z,80.60
2019-01-31T15:39:01.104Z,80.60
2019-01-31T15:41:31.295Z,80.60
2019-01-31T15:44:00.267Z,80.80
2019-01-31T15:46:45.222Z,81.10
2019-01-31T15:49:25.829Z,81.00
2019-01-31T15:52:17.529Z,81.10
2019-01-31T15:54:49.772Z,80.60
2019-01-31T15:57:22.528Z,80.40
2019-01-31T15:59:54.233Z,80.40
2019-01-31T16:02:24.885Z,80.60
2019-01-31T16:04:56.332Z,80.50
2019-01-31T16:07:30.528Z,80.20
2019-01-31T16:10:02.781Z,80.20
2019-01-31T16:12:33.686Z,80.20
2019-01-31T16:15:04.990Z,80.10
2019-01-31T16:17:36.559Z,79.80
2019-01-31T16:20:12.592Z,80.00
2019-01-31T16:22:45.815Z,79.80
2019-01-31T16:25:22.667Z,79.90
2019-01-31T16:27:58.112Z,79.90
2019-01-31T16:30:34.102Z,79.70
2019-01-31T16:33:05.104Z,79.40
2019-01-31T16:35:38.134Z,79.00
2019-01-31T16:38:13.943Z,78.80
2019-01-31T16:40:46.075Z,78.90
2019-01-31T16:43:27.832Z,79.20
2019-01-31T16:46:01.085Z,79.10
2019-01-31T16:48:35.637Z,78.90
2019-01-31T16:51:08.177Z,78.80
2019-01-31T16:53:39.078Z,79.00
2019-01-31T16:56:10.597Z,78.90
2019-01-31T16:58:44.634Z,78.90
2019-01-31T17:01:24.680Z,78.80
2019-01-31T17:03:58.492Z,78.90
2019-01-31T17:06:31.944Z,79.10
2019-01-31T17:09:05.557Z,79.20
2019-01-31T17:11:41.169Z,79.20
2019-01-31T17:14:15.141Z,79.20
2019-01-31T17:16:49.930Z,79.10
2019-01-31T17:19:21.266Z,78.90
2019-01-31T17:21:59.249Z,78.80
2019-01-31T17:24:30.772Z,78.40
2019-01-31T17:27:01.700Z,78.30
2019-01-31T17:29:31.658Z,78.40
2019-01-31T17:32:05.099Z,78.40
2019-01-31T17:37:53.855Z,78.30
2019-01-31T17:40:30.021Z,78.30
2019-01-31T17:43:00.492Z,78.30
2019-01-31T17:45:31.086Z,78.50
2019-01-31T17:48:01.271Z,78.50
2019-01-31T17:50:33.649Z,78.30
2019-01-31T17:53:05.786Z,78.10
2019-01-31T17:55:37.267Z,77.80
2019-01-31T17:58:08.405Z,77.80
2019-01-31T18:00:46.966Z,77.60
2019-01-31T18:03:24.160Z,77.50
2019-01-31T18:05:54.405Z,77.40
2019-01-31T18:08:28.548Z,77.40
2019-01-31T18:11:00.341Z,77.30
2019-01-31T18:13:32.895Z,77.40
2019-01-31T18:16:05.925Z,77.20
2019-01-31T18:18:38.732Z,77.00
2019-01-31T18:21:12.970Z,77.10
2019-01-31T18:23:43.965Z,77.20
2019-01-31T18:26:13.748Z,77.40
2019-01-31T18:28:50.377Z,77.40
2019-01-31T18:31:20.829Z,77.60
2019-01-31T18:33:51.588Z,77.80
2019-01-31T18:36:23.752Z,78.20
2019-01-31T18:38:54.335Z,78.40
2019-01-31T18:41:27.204Z,79.00
2019-01-31T18:44:00.669Z,79.40
2019-01-31T18:46:33.375Z,79.80
2019-01-31T18:49:06.792Z,80.00
2019-01-31T18:51:38.370Z,80.00
2019-01-31T18:54:18.007Z,80.30
2019-01-31T18:56:55.454Z,80.60
2019-01-31T18:59:29.672Z,81.00
2019-01-31T19:02:05.925Z,81.30
2019-01-31T19:04:42.759Z,81.50
2019-01-31T19:07:13.909Z,81.80
2019-01-31T19:09:44.832Z,82.10
2019-01-31T19:12:21.305Z,82.10
2019-01-31T19:14:54.451Z,82.30
2019-01-31T19:17:27.607Z,82.40
2019-01-31T19:20:00.311Z,82.50
2019-01-31T19:22:32.364Z,82.60
2019-01-31T19:25:15.126Z,82.40
2019-01-31T19:27:47.652Z,82.30
2019-01-31T19:30:24.984Z,82.30
2019-01-31T19:33:01.023Z,82.40
2019-01-31T19:35:45.133Z,82.70
2019-01-31T19:38:20.105Z,83.00
2019-01-31T19:40:55.545Z,83.00
2019-01-31T19:43:30.038Z,83.00
2019-01-31T19:46:01.216Z,83.00
2019-01-31T19:48:36.495Z,83.00
2019-01-31T19:51:08.747Z,82.70
2019-01-31T19:53:39.044Z,82.60
2019-01-31T19:56:11.476Z,82.60
2019-01-31T19:58:44.515Z,82.60
2019-01-31T20:01:16.581Z,82.60
2019-01-31T20:03:50.446Z,82.80
2019-01-31T20:06:24.167Z,83.20
2019-01-31T20:08:55.658Z,83.40
2019-01-31T20:11:25.853Z,83.60
2019-01-31T20:13:58.231Z,83.70
2019-01-31T20:16:30.352Z,83.60
2019-01-31T20:19:03.337Z,83.70
2019-01-31T20:21:34.467Z,83.70
2019-01-31T20:24:06.224Z,83.80
2019-01-31T20:26:36.459Z,83.90
2019-01-31T20:29:06.079Z,83.90
2019-01-31T20:31:35.200Z,83.70
2019-01-31T20:34:04.896Z,83.50
2019-01-31T20:36:35.585Z,83.50
2019-01-31T20:39:08.288Z,83.60
2019-01-31T20:41:38.383Z,83.70
2019-01-31T20:44:07.530Z,83.80
2019-01-31T20:46:40.103Z,83.80
2019-01-31T20:49:07.325Z,83.70
2019-01-31T20:51:36.789Z,83.90
2019-01-31T20:54:11.868Z,84.00
2019-01-31T20:56:43.168Z,84.10
2019-01-31T20:59:12.280Z,84.20
2019-01-31T21:01:41.583Z,84.20
2019-01-31T21:04:10.638Z,84.30
2019-01-31T21:06:43.034Z,84.30
2019-01-31T21:09:12.017Z,84.20
2019-01-31T21:11:41.127Z,84.40
2019-01-31T21:14:12.368Z,84.70
2019-01-31T21:16:51.398Z,84.90
2019-01-31T21:19:16.548Z,85.10
2019-01-31T21:21:50.790Z,85.20
2019-01-31T21:24:24.441Z,85.30
2019-01-31T21:27:01.390Z,86.00
2019-01-31T21:29:35.915Z,85.70
2019-01-31T21:32:08.158Z,86.00
2019-01-31T21:34:40.130Z,86.00
2019-01-31T21:37:18.932Z,86.10
2019-01-31T21:39:51.359Z,86.30
2019-01-31T21:42:28.433Z,86.40
2019-01-31T21:45:00.325Z,86.50
2019-01-31T21:47:33.993Z,86.60
2019-01-31T21:50:18.069Z,86.70
2019-01-31T21:52:48.823Z,86.90
2019-01-31T21:55:19.437Z,87.00
2019-01-31T21:57:54.026Z,87.10
2019-01-31T22:00:30.325Z,87.90
2019-01-31T22:03:02.446Z,87.30
2019-01-31T22:05:33.828Z,87.50
2019-01-31T22:08:04.038Z,87.70
2019-01-31T22:10:40.047Z,87.90
2019-01-31T22:13:14.309Z,88.10
2019-01-31T22:15:49.895Z,88.30
2019-01-31T22:18:26.113Z,88.40
2019-01-31T22:21:00.055Z,88.50
2019-01-31T22:23:33.632Z,88.60
2019-01-31T22:26:09.787Z,88.70
2019-01-31T22:28:39.908Z,88.80
2019-01-31T22:31:11.253Z,88.80
2019-01-31T22:33:41.403Z,88.90
2019-01-31T22:36:13.365Z,88.90
2019-01-31T22:38:45.661Z,89.00
2019-01-31T22:41:14.395Z,89.00
2019-01-31T22:43:44.841Z,89.10
2019-01-31T22:46:13.875Z,89.10
2019-01-31T22:48:43.352Z,89.20
2019-01-31T22:51:12.760Z,89.30
2019-01-31T22:53:42.552Z,89.40
2019-01-31T22:56:12.447Z,89.40
2019-01-31T22:58:51.757Z,89.40
2019-01-31T23:01:25.233Z,89.50
2019-01-31T23:03:55.646Z,89.50
2019-01-31T23:06:26.606Z,89.50
2019-01-31T23:08:55.741Z,89.60
2019-01-31T23:11:26.470Z,89.60
2019-01-31T23:13:55.576Z,89.60
2019-01-31T23:16:25.345Z,89.60
2019-01-31T23:18:54.432Z,89.50
2019-01-31T23:21:23.322Z,89.40
2019-01-31T23:23:52.409Z,89.30
2019-01-31T23:26:22.327Z,89.30
2019-01-31T23:28:52.400Z,89.30
2019-01-31T23:31:25.428Z,89.40
2019-01-31T23:33:54.332Z,89.30
2019-01-31T23:36:23.721Z,89.30
2019-01-31T23:38:52.844Z,89.40
2019-01-31T23:41:27.643Z,89.50
2019-01-31T23:43:57.099Z,89.50
2019-01-31T23:46:30.374Z,89.50
2019-01-31T23:48:59.360Z,89.50
2019-01-31T23:51:28.336Z,89.50
2019-01-31T23:53:57.446Z,89.60
2019-01-31T23:56:28.929Z,89.80
2019-01-31T23:58:59.319Z,89.90
